createdAt,value
2018-01-22T00:00:31.351Z,0
2018-01-22T00:01:31.918Z,0
2018-01-22T00:02:32.486Z,0
2018-01-22T00:03:33.056Z,0
2018-01-22T00:04:33.626Z,0
2018-01-22T00:05:34.190Z,0
2018-01-22T00:06:34.757Z,0
2018-01-22T00:07:35.339Z,0
2018-01-22T00:08:35.904Z,0
2018-01-22T00:09:36.470Z,0
2018-01-22T00:10:37.036Z,0
2018-01-22T00:11:37.609Z,0
2018-01-22T00:12:38.171Z,0
2018-01-22T00:13:38.738Z,0
2018-01-22T00:14:39.311Z,0
2018-01-22T00:15:39.874Z,0
2018-01-22T00:16:40.441Z,0
2018-01-22T00:17:41.008Z,0
2018-01-22T00:18:41.576Z,0
2018-01-22T00:19:42.144Z,0
2018-01-22T00:20:42.714Z,0
2018-01-22T00:21:43.281Z,0
2018-01-22T00:22:43.848Z,0
2018-01-22T00:23:44.415Z,0
2018-01-22T00:24:44.999Z,0
2018-01-22T00:25:45.565Z,0
2018-01-22T00:26:46.132Z,0
2018-01-22T00:27:46.741Z,0
2018-01-22T00:28:47.268Z,0
2018-01-22T00:29:47.836Z,0
2018-01-22T00:30:48.404Z,0
2018-01-22T00:31:48.970Z,0
2018-01-22T00:32:49.538Z,0
2018-01-22T00:33:50.104Z,0
2018-01-22T00:34:50.673Z,0
2018-01-22T00:35:51.242Z,0
2018-01-22T00:36:51.808Z,0
2018-01-22T00:37:52.377Z,0
2018-01-22T00:38:52.957Z,0
2018-01-22T00:39:53.524Z,0
2018-01-22T00:40:54.091Z,0
2018-01-22T00:41:54.658Z,0
2018-01-22T00:42:55.227Z,0
2018-01-22T00:43:55.795Z,0
2018-01-22T00:44:56.362Z,0
2018-01-22T00:45:56.931Z,0
2018-01-22T00:46:57.498Z,0
2018-01-22T00:47:58.065Z,0
2018-01-22T00:48:58.632Z,0
2018-01-22T00:49:59.200Z,0
2018-01-22T00:50:59.769Z,0
2018-01-22T00:52:00.336Z,0
2018-01-22T00:53:00.904Z,0
2018-01-22T00:54:01.471Z,0
2018-01-22T00:55:02.037Z,0
2018-01-22T00:56:02.603Z,0
2018-01-22T00:57:03.171Z,0
2018-01-22T00:58:03.742Z,0
2018-01-22T00:59:04.308Z,0
2018-01-22T01:00:04.877Z,0
2018-01-22T01:01:05.443Z,0
2018-01-22T01:02:06.009Z,0
2018-01-22T01:03:06.577Z,0
2018-01-22T01:04:07.144Z,0
2018-01-22T01:05:07.713Z,0
2018-01-22T01:06:08.280Z,0
2018-01-22T01:07:08.847Z,0
2018-01-22T01:08:09.415Z,0
2018-01-22T01:09:09.984Z,0
2018-01-22T01:10:10.564Z,0
2018-01-22T01:11:11.130Z,0
2018-01-22T01:12:11.698Z,0
2018-01-22T01:13:12.266Z,0
2018-01-22T01:14:12.833Z,0
2018-01-22T01:15:13.401Z,0
2018-01-22T01:16:13.969Z,0
2018-01-22T01:17:14.536Z,0
2018-01-22T01:18:15.117Z,0
2018-01-22T01:19:15.683Z,0
2018-01-22T01:20:16.249Z,0
2018-01-22T01:21:16.816Z,0
2018-01-22T01:22:17.384Z,0
2018-01-22T01:23:17.965Z,0
2018-01-22T01:24:18.534Z,0
2018-01-22T01:25:19.100Z,0
2018-01-22T01:26:19.669Z,0
2018-01-22T01:27:20.236Z,0
2018-01-22T01:28:20.801Z,0
2018-01-22T01:29:21.367Z,0
2018-01-22T01:30:21.933Z,0
2018-01-22T01:31:22.514Z,0
2018-01-22T01:32:23.080Z,0
2018-01-22T01:33:23.645Z,0
2018-01-22T01:34:24.209Z,0
2018-01-22T01:35:24.775Z,0
2018-01-22T01:36:25.354Z,0
2018-01-22T01:37:25.921Z,0
2018-01-22T01:38:26.486Z,0
2018-01-22T01:39:27.052Z,0
2018-01-22T01:40:27.618Z,0
2018-01-22T01:41:28.190Z,0
2018-01-22T01:42:28.769Z,0
2018-01-22T01:43:29.336Z,0
2018-01-22T01:44:29.903Z,0
2018-01-22T01:45:30.470Z,0
2018-01-22T01:46:31.037Z,0
2018-01-22T01:47:31.602Z,0
2018-01-22T01:48:32.168Z,0
2018-01-22T01:49:32.734Z,0
2018-01-22T01:50:33.298Z,0
2018-01-22T01:51:33.878Z,0
2018-01-22T01:52:34.443Z,0
2018-01-22T01:53:35.008Z,0
2018-01-22T01:54:35.573Z,0
2018-01-22T01:55:36.139Z,0
2018-01-22T01:56:36.705Z,0
2018-01-22T01:57:37.286Z,0
2018-01-22T01:58:37.851Z,0
2018-01-22T01:59:38.432Z,0
2018-01-22T02:00:38.998Z,0
2018-01-22T02:01:39.578Z,0
2018-01-22T02:02:40.146Z,0
2018-01-22T02:03:40.711Z,0
2018-01-22T02:04:41.277Z,0
2018-01-22T02:05:41.843Z,0
2018-01-22T02:06:42.423Z,0
2018-01-22T02:07:42.989Z,0
2018-01-22T02:08:43.553Z,0
2018-01-22T02:09:44.120Z,0
2018-01-22T02:10:44.709Z,0
2018-01-22T02:11:45.265Z,0
2018-01-22T02:12:45.832Z,0
2018-01-22T02:13:46.413Z,0
2018-01-22T02:14:46.980Z,0
2018-01-22T02:15:47.545Z,0
2018-01-22T02:16:48.112Z,0
2018-01-22T02:17:48.677Z,0
2018-01-22T02:18:49.242Z,0
2018-01-22T02:19:49.808Z,0
2018-01-22T02:20:50.374Z,0
2018-01-22T02:21:50.941Z,0
2018-01-22T02:22:51.510Z,0
2018-01-22T02:23:52.073Z,0
2018-01-22T02:24:52.642Z,0
2018-01-22T02:25:53.223Z,0
2018-01-22T02:26:53.788Z,0
2018-01-22T02:29:09.806Z,0
2018-01-22T02:30:10.373Z,0
2018-01-22T02:31:10.938Z,0
2018-01-22T02:32:11.504Z,0
2018-01-22T02:33:12.072Z,0
2018-01-22T02:34:12.635Z,0
2018-01-22T02:35:13.200Z,0
2018-01-22T02:36:13.765Z,0
2018-01-22T02:37:14.333Z,0
2018-01-22T02:38:14.899Z,0
2018-01-22T02:39:15.467Z,0
2018-01-22T02:40:16.032Z,0
2018-01-22T02:41:16.600Z,0
2018-01-22T02:42:17.167Z,0
2018-01-22T02:43:17.734Z,0
2018-01-22T02:44:18.315Z,0
2018-01-22T02:45:18.881Z,0
2018-01-22T02:46:19.446Z,0
2018-01-22T02:47:20.016Z,0
2018-01-22T02:48:20.577Z,0
2018-01-22T02:49:21.144Z,0
2018-01-22T02:50:21.709Z,0
2018-01-22T02:51:22.277Z,0
2018-01-22T02:52:22.849Z,0
2018-01-22T02:53:23.410Z,0
2018-01-22T02:54:23.977Z,0
2018-01-22T02:55:24.543Z,0
2018-01-22T02:56:25.125Z,0
2018-01-22T02:57:25.689Z,0
2018-01-22T02:58:26.256Z,0
2018-01-22T02:59:26.821Z,0
2018-01-22T03:00:27.387Z,0
2018-01-22T03:01:27.965Z,0
2018-01-22T03:02:28.546Z,0
2018-01-22T03:03:29.127Z,0
2018-01-22T03:04:29.694Z,0
2018-01-22T03:05:30.262Z,0
2018-01-22T03:06:30.827Z,0
2018-01-22T03:07:31.394Z,0
2018-01-22T03:08:31.959Z,0
2018-01-22T03:09:32.530Z,0
2018-01-22T03:10:33.109Z,0
2018-01-22T03:11:33.672Z,0
2018-01-22T03:12:34.236Z,0
2018-01-22T03:13:34.803Z,0
2018-01-22T03:14:35.367Z,0
2018-01-22T03:15:35.933Z,0
2018-01-22T03:16:36.498Z,0
2018-01-22T03:17:37.063Z,0
2018-01-22T03:18:37.629Z,0
2018-01-22T03:19:38.197Z,0
2018-01-22T03:20:38.762Z,0
2018-01-22T03:21:39.329Z,0
2018-01-22T03:22:39.894Z,0
2018-01-22T03:23:40.460Z,0
2018-01-22T03:24:41.036Z,0
2018-01-22T03:25:41.589Z,0
2018-01-22T03:26:42.154Z,0
2018-01-22T03:27:42.719Z,0
2018-01-22T03:28:43.285Z,0
2018-01-22T03:29:43.851Z,0
2018-01-22T03:30:44.431Z,0
2018-01-22T03:31:45.010Z,0
2018-01-22T03:32:45.577Z,0
2018-01-22T03:33:46.145Z,0
2018-01-22T03:34:46.709Z,0
2018-01-22T03:35:47.277Z,0
2018-01-22T03:36:47.841Z,0
2018-01-22T03:37:48.406Z,0
2018-01-22T03:38:48.972Z,0
2018-01-22T03:39:49.539Z,0
2018-01-22T03:40:50.108Z,0
2018-01-22T03:41:50.674Z,0
2018-01-22T03:42:51.241Z,0
2018-01-22T03:43:51.806Z,0
2018-01-22T03:44:52.372Z,0
2018-01-22T03:45:52.939Z,0
2018-01-22T03:46:53.503Z,0
2018-01-22T03:47:54.082Z,0
2018-01-22T03:48:54.648Z,0
2018-01-22T03:49:55.214Z,0
2018-01-22T03:50:55.784Z,0
2018-01-22T03:51:56.345Z,0
2018-01-22T03:52:56.910Z,0
2018-01-22T03:53:57.492Z,0
2018-01-22T03:54:58.058Z,0
2018-01-22T03:55:58.624Z,0
2018-01-22T03:56:59.204Z,0
2018-01-22T03:57:59.771Z,0
2018-01-22T03:59:00.338Z,0
2018-01-22T04:00:00.900Z,0
2018-01-22T04:01:01.469Z,0
2018-01-22T04:02:02.046Z,0
2018-01-22T04:03:02.612Z,0
2018-01-22T04:04:03.177Z,0
2018-01-22T04:05:03.743Z,0
2018-01-22T04:06:04.322Z,0
2018-01-22T04:07:04.886Z,0
2018-01-22T04:08:05.451Z,0
2018-01-22T04:09:06.015Z,0
2018-01-22T04:10:06.583Z,0
2018-01-22T04:11:07.148Z,0
2018-01-22T04:12:07.713Z,0
2018-01-22T04:13:08.293Z,0
2018-01-22T04:14:08.858Z,0
2018-01-22T04:15:09.423Z,0
2018-01-22T04:16:10.005Z,0
2018-01-22T04:17:10.586Z,0
2018-01-22T04:18:11.171Z,0
2018-01-22T04:19:11.733Z,0
2018-01-22T04:20:12.302Z,0
2018-01-22T04:21:12.868Z,0
2018-01-22T04:22:13.433Z,0
2018-01-22T04:23:14.014Z,0
2018-01-22T04:24:14.580Z,0
2018-01-22T04:25:15.147Z,0
2018-01-22T04:26:15.732Z,0
2018-01-22T04:27:16.308Z,0
2018-01-22T04:28:16.874Z,0
2018-01-22T04:29:17.442Z,0
2018-01-22T04:30:18.012Z,0
2018-01-22T04:31:18.590Z,0
2018-01-22T04:32:19.159Z,0
2018-01-22T04:33:19.725Z,0
2018-01-22T04:34:20.294Z,0
2018-01-22T04:35:20.856Z,0
2018-01-22T04:36:21.421Z,0
2018-01-22T04:37:21.987Z,0
2018-01-22T04:38:22.554Z,0
2018-01-22T04:39:23.119Z,0
2018-01-22T04:40:23.686Z,0
2018-01-22T04:41:24.253Z,0
2018-01-22T04:42:24.820Z,0
2018-01-22T04:43:25.389Z,0
2018-01-22T04:44:25.955Z,0
2018-01-22T04:45:26.520Z,0
2018-01-22T04:46:27.085Z,0
2018-01-22T04:47:27.651Z,0
2018-01-22T04:48:28.257Z,0
2018-01-22T04:49:28.783Z,0
2018-01-22T04:50:29.350Z,0
2018-01-22T04:51:29.916Z,0
2018-01-22T04:52:30.484Z,0
2018-01-22T04:53:31.050Z,0
2018-01-22T04:54:31.619Z,0
2018-01-22T04:55:32.183Z,0
2018-01-22T04:56:32.748Z,0
2018-01-22T04:57:33.314Z,0
2018-01-22T04:58:33.880Z,0
2018-01-22T04:59:34.449Z,0
2018-01-22T05:00:35.033Z,0
2018-01-22T05:01:35.593Z,0
2018-01-22T05:02:36.172Z,0
2018-01-22T05:03:36.739Z,0
2018-01-22T05:04:37.304Z,0
2018-01-22T05:05:37.870Z,0
2018-01-22T05:06:38.436Z,0
2018-01-22T05:07:39.001Z,0
2018-01-22T05:08:39.568Z,0
2018-01-22T05:09:40.135Z,0
2018-01-22T05:10:40.703Z,0
2018-01-22T05:11:41.268Z,0
2018-01-22T05:12:41.833Z,0
2018-01-22T05:13:42.399Z,0
2018-01-22T05:14:42.964Z,0
2018-01-22T05:15:43.532Z,0
2018-01-22T05:16:44.110Z,0
2018-01-22T05:17:44.676Z,0
2018-01-22T05:18:45.243Z,0
2018-01-22T05:19:45.809Z,0
2018-01-22T05:20:46.375Z,0
2018-01-22T05:21:46.941Z,0
2018-01-22T05:22:47.505Z,0
2018-01-22T05:23:48.071Z,0
2018-01-22T05:24:48.638Z,0
2018-01-22T05:25:49.206Z,0
2018-01-22T05:26:49.773Z,0
2018-01-22T05:27:50.340Z,0
2018-01-22T05:28:50.905Z,0
2018-01-22T05:29:51.472Z,0
2018-01-22T05:30:52.037Z,0
2018-01-22T05:31:52.602Z,0
2018-01-22T05:32:53.170Z,0
2018-01-22T05:33:53.748Z,0
2018-01-22T05:34:54.314Z,0
2018-01-22T05:35:54.882Z,0
2018-01-22T05:36:55.461Z,0
2018-01-22T05:37:56.028Z,0
2018-01-22T05:38:56.596Z,0
2018-01-22T05:39:57.159Z,0
2018-01-22T05:40:57.725Z,0
2018-01-22T05:41:58.291Z,0
2018-01-22T05:42:58.859Z,0
2018-01-22T05:43:59.423Z,0
2018-01-22T05:44:59.991Z,0
2018-01-22T05:46:00.557Z,0
2018-01-22T05:47:01.124Z,0
2018-01-22T05:48:01.690Z,0
2018-01-22T05:49:02.255Z,0
2018-01-22T05:50:02.822Z,0
2018-01-22T05:51:03.388Z,0
2018-01-22T05:52:03.956Z,0
2018-01-22T05:53:04.522Z,0
2018-01-22T05:54:05.090Z,0
2018-01-22T05:55:05.657Z,0
2018-01-22T05:56:06.226Z,0
2018-01-22T05:57:06.793Z,0
2018-01-22T05:58:07.374Z,0
2018-01-22T05:59:07.942Z,0
2018-01-22T06:00:08.507Z,0
2018-01-22T06:01:09.073Z,0
2018-01-22T06:02:09.639Z,0
2018-01-22T06:03:10.206Z,0
2018-01-22T06:04:10.774Z,0
2018-01-22T06:05:11.354Z,0
2018-01-22T06:06:11.924Z,0
2018-01-22T06:07:12.490Z,0
2018-01-22T06:08:13.054Z,0
2018-01-22T06:09:13.622Z,0
2018-01-22T06:10:14.188Z,0
2018-01-22T06:11:14.754Z,0
2018-01-22T06:12:15.319Z,0
2018-01-22T06:13:15.886Z,0
2018-01-22T06:14:16.452Z,0
2018-01-22T06:15:17.019Z,0
2018-01-22T06:16:17.586Z,0
2018-01-22T06:17:18.151Z,0
2018-01-22T06:18:18.719Z,0
2018-01-22T06:19:19.286Z,0
2018-01-22T06:20:19.853Z,0
2018-01-22T06:21:20.418Z,0
2018-01-22T06:22:20.984Z,0
2018-01-22T06:23:21.550Z,0
2018-01-22T06:24:22.115Z,0
2018-01-22T06:25:22.681Z,0
2018-01-22T06:26:23.247Z,0
2018-01-22T06:27:23.815Z,0
2018-01-22T06:28:24.381Z,0
2018-01-22T06:29:24.948Z,0
2018-01-22T06:30:25.513Z,0
2018-01-22T06:31:26.081Z,0
2018-01-22T06:32:26.647Z,0
2018-01-22T06:33:27.213Z,0
2018-01-22T06:34:27.780Z,0
2018-01-22T06:35:28.346Z,0
2018-01-22T06:36:28.916Z,0
2018-01-22T06:37:29.482Z,0
2018-01-22T06:38:30.052Z,0
2018-01-22T06:39:30.615Z,0
2018-01-22T06:40:31.182Z,0
2018-01-22T06:41:31.746Z,0
2018-01-22T06:42:32.313Z,0
2018-01-22T06:43:32.877Z,0
2018-01-22T06:44:33.442Z,0
2018-01-22T06:45:34.006Z,0
2018-01-22T06:46:34.571Z,0
2018-01-22T06:47:35.135Z,0
2018-01-22T06:48:35.699Z,0
2018-01-22T06:49:36.265Z,0
2018-01-22T06:50:36.830Z,0
2018-01-22T06:51:37.395Z,0
2018-01-22T06:52:37.960Z,0
2018-01-22T06:53:38.580Z,0
2018-01-22T06:54:39.093Z,0
2018-01-22T06:55:39.660Z,0
2018-01-22T06:56:40.227Z,0
2018-01-22T06:57:40.795Z,0
2018-01-22T06:58:41.359Z,0
2018-01-22T06:59:41.926Z,0
2018-01-22T07:00:42.491Z,0
2018-01-22T07:01:43.056Z,0
2018-01-22T07:02:43.635Z,0
2018-01-22T07:03:44.203Z,0
2018-01-22T07:04:44.769Z,0
2018-01-22T07:05:45.334Z,0
2018-01-22T07:06:45.900Z,0
2018-01-22T07:07:46.467Z,0
2018-01-22T07:08:47.033Z,0
2018-01-22T07:09:47.599Z,0
2018-01-22T07:10:48.172Z,4
2018-01-22T07:11:48.732Z,0
2018-01-22T07:12:49.300Z,4
2018-01-22T07:13:49.868Z,4
2018-01-22T07:14:50.434Z,0
2018-01-22T07:15:51.001Z,0
2018-01-22T07:16:51.567Z,0
2018-01-22T07:17:52.134Z,4
2018-01-22T07:18:52.699Z,4
2018-01-22T07:19:53.266Z,4
2018-01-22T07:20:53.834Z,0
2018-01-22T07:21:54.402Z,4
2018-01-22T07:22:54.982Z,4
2018-01-22T07:23:55.549Z,4
2018-01-22T07:24:56.116Z,4
2018-01-22T07:25:56.683Z,4
2018-01-22T07:26:57.250Z,4
2018-01-22T07:27:57.816Z,4
2018-01-22T07:28:58.383Z,4
2018-01-22T07:29:58.949Z,4
2018-01-22T07:30:59.515Z,4
2018-01-22T07:32:00.082Z,8
2018-01-22T07:33:00.650Z,8
2018-01-22T07:34:01.216Z,4
2018-01-22T07:35:01.785Z,4
2018-01-22T07:36:02.349Z,8
2018-01-22T07:37:02.916Z,8
2018-01-22T07:38:03.481Z,8
2018-01-22T07:39:04.049Z,8
2018-01-22T07:40:04.613Z,8
2018-01-22T07:41:05.192Z,8
2018-01-22T07:42:05.813Z,8
2018-01-22T07:43:06.325Z,8
2018-01-22T07:44:06.892Z,8
2018-01-22T07:45:07.459Z,12
2018-01-22T07:46:08.028Z,12
2018-01-22T07:47:08.606Z,8
2018-01-22T07:48:09.174Z,8
2018-01-22T07:49:09.755Z,12
2018-01-22T07:50:10.322Z,12
2018-01-22T07:51:10.889Z,12
2018-01-22T07:52:11.455Z,12
2018-01-22T07:53:12.022Z,12
2018-01-22T07:54:12.590Z,12
2018-01-22T07:55:13.160Z,16
2018-01-22T07:56:13.728Z,16
2018-01-22T07:57:14.295Z,16
2018-01-22T07:58:14.861Z,16
2018-01-22T07:59:15.428Z,12
2018-01-22T08:00:15.996Z,12
2018-01-22T08:01:16.565Z,12
2018-01-22T08:02:17.134Z,12
2018-01-22T08:03:17.703Z,12
2018-01-22T08:04:18.284Z,12
2018-01-22T08:05:18.854Z,12
2018-01-22T08:06:19.421Z,16
2018-01-22T08:07:20.005Z,16
2018-01-22T08:08:20.588Z,16
2018-01-22T08:09:21.173Z,16
2018-01-22T08:10:21.752Z,16
2018-01-22T08:11:22.322Z,16
2018-01-22T08:12:22.892Z,20
2018-01-22T08:13:23.458Z,16
2018-01-22T08:14:24.026Z,20
2018-01-22T08:15:24.593Z,16
2018-01-22T08:16:25.163Z,16
2018-01-22T08:17:25.732Z,20
2018-01-22T08:18:26.301Z,16
2018-01-22T08:19:26.882Z,16
2018-01-22T08:20:27.449Z,20
2018-01-22T08:21:28.030Z,20
2018-01-22T08:22:28.600Z,20
2018-01-22T08:23:29.168Z,24
2018-01-22T08:24:29.734Z,20
2018-01-22T08:25:30.300Z,24
2018-01-22T08:26:30.882Z,20
2018-01-22T08:27:31.432Z,24
2018-01-22T08:28:32.002Z,24
2018-01-22T08:29:32.569Z,24
2018-01-22T08:30:33.137Z,24
2018-01-22T08:31:33.705Z,24
2018-01-22T08:32:34.272Z,24
2018-01-22T08:33:34.839Z,24
2018-01-22T08:34:35.406Z,24
2018-01-22T08:35:35.974Z,28
2018-01-22T08:36:36.543Z,28
2018-01-22T08:37:37.112Z,28
2018-01-22T08:38:37.681Z,28
2018-01-22T08:39:38.249Z,28
2018-01-22T08:40:38.818Z,28
2018-01-22T08:41:39.383Z,28
2018-01-22T08:42:39.952Z,28
2018-01-22T08:43:40.522Z,32
2018-01-22T08:44:41.089Z,32
2018-01-22T08:45:41.657Z,28
2018-01-22T08:46:42.225Z,32
2018-01-22T08:47:42.793Z,32
2018-01-22T08:48:43.364Z,36
2018-01-22T08:49:43.931Z,36
2018-01-22T08:50:44.499Z,44
2018-01-22T08:51:45.069Z,44
2018-01-22T08:52:45.635Z,48
2018-01-22T08:53:46.200Z,48
2018-01-22T08:54:46.770Z,48
2018-01-22T08:55:47.349Z,52
2018-01-22T08:56:47.909Z,48
2018-01-22T08:57:48.473Z,48
2018-01-22T08:58:49.044Z,48
2018-01-22T08:59:49.608Z,48
2018-01-22T09:00:50.175Z,48
2018-01-22T09:01:50.744Z,48
2018-01-22T09:02:51.314Z,52
2018-01-22T09:03:51.882Z,56
2018-01-22T09:04:52.451Z,64
2018-01-22T09:05:53.034Z,68
2018-01-22T09:06:53.615Z,72
2018-01-22T09:07:54.197Z,80
2018-01-22T09:08:54.752Z,96
2018-01-22T09:09:55.320Z,104
2018-01-22T09:10:55.888Z,120
2018-01-22T09:11:56.458Z,136
2018-01-22T09:12:57.028Z,144
2018-01-22T09:13:57.598Z,136
2018-01-22T09:14:58.166Z,124
2018-01-22T09:15:58.736Z,128
2018-01-22T09:16:59.305Z,128
2018-01-22T09:17:59.874Z,132
2018-01-22T09:19:00.446Z,136
2018-01-22T09:20:01.014Z,128
2018-01-22T09:21:01.584Z,128
2018-01-22T09:22:02.168Z,132
2018-01-22T09:23:02.737Z,148
2018-01-22T09:24:03.305Z,152
2018-01-22T09:25:03.875Z,140
2018-01-22T09:26:04.443Z,144
2018-01-22T09:27:05.012Z,144
2018-01-22T09:28:05.585Z,140
2018-01-22T09:29:06.160Z,136
2018-01-22T09:30:06.734Z,124
2018-01-22T09:31:07.309Z,116
2018-01-22T09:32:07.879Z,108
2018-01-22T09:33:08.443Z,104
2018-01-22T09:34:09.013Z,96
2018-01-22T09:35:09.582Z,92
2018-01-22T09:36:10.152Z,88
2018-01-22T09:37:10.718Z,80
2018-01-22T09:38:11.288Z,76
2018-01-22T09:39:11.852Z,68
2018-01-22T09:40:12.420Z,68
2018-01-22T09:41:12.990Z,76
2018-01-22T09:42:13.559Z,84
2018-01-22T09:43:14.129Z,100
2018-01-22T09:44:14.699Z,108
2018-01-22T09:45:15.268Z,108
2018-01-22T09:46:15.839Z,100
2018-01-22T09:47:16.409Z,116
2018-01-22T09:48:16.980Z,112
2018-01-22T09:49:17.545Z,92
2018-01-22T09:50:18.112Z,72
2018-01-22T09:51:18.680Z,68
2018-01-22T09:52:19.262Z,76
2018-01-22T09:53:19.830Z,84
2018-01-22T09:54:20.399Z,96
2018-01-22T09:55:20.983Z,108
2018-01-22T09:56:21.554Z,104
2018-01-22T09:57:22.125Z,116
2018-01-22T09:58:22.695Z,116
2018-01-22T09:59:23.264Z,120
2018-01-22T10:00:23.834Z,124
2018-01-22T10:01:24.405Z,128
2018-01-22T10:02:24.975Z,124
2018-01-22T10:03:25.544Z,120
2018-01-22T10:04:26.114Z,124
2018-01-22T10:05:26.683Z,112
2018-01-22T10:06:27.344Z,100
2018-01-22T10:07:27.824Z,84
2018-01-22T10:08:28.392Z,72
2018-01-22T10:09:28.961Z,64
2018-01-22T10:10:29.530Z,60
2018-01-22T10:11:30.098Z,60
2018-01-22T10:12:30.679Z,56
2018-01-22T10:13:31.247Z,60
2018-01-22T10:14:31.815Z,52
2018-01-22T10:15:32.406Z,48
2018-01-22T10:16:32.955Z,48
2018-01-22T10:17:33.524Z,52
2018-01-22T10:18:34.093Z,64
2018-01-22T10:19:34.662Z,64
2018-01-22T10:20:35.248Z,56
2018-01-22T10:21:35.813Z,48
2018-01-22T10:22:36.382Z,56
2018-01-22T10:23:36.964Z,60
2018-01-22T10:24:37.531Z,68
2018-01-22T10:25:38.098Z,68
2018-01-22T10:26:38.669Z,64
2018-01-22T10:27:39.239Z,48
2018-01-22T10:28:39.808Z,64
2018-01-22T10:29:40.395Z,52
2018-01-22T10:30:40.961Z,48
2018-01-22T10:31:41.529Z,52
2018-01-22T10:32:42.112Z,44
2018-01-22T10:33:42.681Z,40
2018-01-22T10:34:43.246Z,52
2018-01-22T10:35:43.814Z,56
2018-01-22T10:36:44.397Z,52
2018-01-22T10:37:45.000Z,48
2018-01-22T10:38:45.549Z,56
2018-01-22T10:39:46.118Z,56
2018-01-22T10:40:46.688Z,56
2018-01-22T10:41:47.253Z,52
2018-01-22T10:42:47.822Z,60
2018-01-22T10:43:48.427Z,56
2018-01-22T10:44:48.960Z,64
2018-01-22T10:45:49.529Z,68
2018-01-22T10:46:50.098Z,64
2018-01-22T10:47:50.665Z,64
2018-01-22T10:48:51.233Z,56
2018-01-22T10:49:51.816Z,56
2018-01-22T10:50:52.385Z,56
2018-01-22T10:51:52.955Z,56
2018-01-22T10:52:53.526Z,60
2018-01-22T10:53:54.098Z,56
2018-01-22T10:54:54.664Z,60
2018-01-22T10:55:55.238Z,52
2018-01-22T10:56:55.804Z,52
2018-01-22T10:57:56.369Z,52
2018-01-22T10:58:56.939Z,60
2018-01-22T10:59:57.507Z,68
2018-01-22T11:00:58.076Z,80
2018-01-22T11:01:58.645Z,76
2018-01-22T11:02:59.212Z,72
2018-01-22T11:03:59.780Z,76
2018-01-22T11:05:00.357Z,64
2018-01-22T11:06:00.925Z,72
2018-01-22T11:07:01.494Z,72
2018-01-22T11:08:02.065Z,72
2018-01-22T11:09:02.645Z,68
2018-01-22T11:10:03.213Z,56
2018-01-22T11:11:03.781Z,60
2018-01-22T11:12:04.350Z,56
2018-01-22T11:13:04.918Z,64
2018-01-22T11:14:05.489Z,60
2018-01-22T11:15:06.056Z,60
2018-01-22T11:16:06.625Z,64
2018-01-22T11:17:07.194Z,64
2018-01-22T11:18:07.763Z,68
2018-01-22T11:19:08.331Z,72
2018-01-22T11:20:08.902Z,76
2018-01-22T11:21:09.469Z,68
2018-01-22T11:22:10.036Z,64
2018-01-22T11:23:10.620Z,60
2018-01-22T11:24:11.191Z,64
2018-01-22T11:25:11.759Z,64
2018-01-22T11:26:12.326Z,64
2018-01-22T11:27:12.896Z,68
2018-01-22T11:28:13.464Z,80
2018-01-22T11:29:14.034Z,76
2018-01-22T11:30:14.603Z,56
2018-01-22T11:31:15.174Z,56
2018-01-22T11:32:15.743Z,64
2018-01-22T11:33:16.312Z,68
2018-01-22T11:34:16.880Z,84
2018-01-22T11:35:17.450Z,96
2018-01-22T11:36:18.022Z,120
2018-01-22T11:37:18.592Z,132
2018-01-22T11:38:19.178Z,160
2018-01-22T11:39:19.747Z,168
2018-01-22T11:40:20.319Z,168
2018-01-22T11:41:20.903Z,160
2018-01-22T11:42:21.476Z,124
2018-01-22T11:43:22.059Z,108
2018-01-22T11:44:22.630Z,92
2018-01-22T11:45:23.216Z,84
2018-01-22T11:46:23.786Z,100
2018-01-22T11:47:24.376Z,132
2018-01-22T11:48:24.960Z,120
2018-01-22T11:49:25.531Z,100
2018-01-22T11:50:26.100Z,76
2018-01-22T11:51:26.671Z,72
2018-01-22T11:52:27.253Z,72
2018-01-22T11:53:27.822Z,96
2018-01-22T11:54:28.391Z,128
2018-01-22T11:55:28.962Z,128
2018-01-22T11:56:29.532Z,124
2018-01-22T11:57:30.102Z,124
2018-01-22T11:58:30.670Z,128
2018-01-22T11:59:31.239Z,140
2018-01-22T12:00:31.812Z,148
2018-01-22T12:01:32.415Z,148
2018-01-22T12:02:32.952Z,172
2018-01-22T12:03:33.521Z,168
2018-01-22T12:04:34.094Z,172
2018-01-22T12:05:34.663Z,180
2018-01-22T12:06:35.233Z,200
2018-01-22T12:07:35.805Z,200
2018-01-22T12:08:36.374Z,208
2018-01-22T12:09:36.945Z,220
2018-01-22T12:10:37.516Z,216
2018-01-22T12:11:38.087Z,224
2018-01-22T12:12:38.656Z,216
2018-01-22T12:13:39.226Z,208
2018-01-22T12:14:39.804Z,232
2018-01-22T12:15:40.372Z,236
2018-01-22T12:16:40.943Z,236
2018-01-22T12:17:41.514Z,220
2018-01-22T12:18:42.087Z,188
2018-01-22T12:19:42.657Z,164
2018-01-22T12:20:43.228Z,148
2018-01-22T12:21:43.798Z,136
2018-01-22T12:22:44.368Z,124
2018-01-22T12:23:44.952Z,124
2018-01-22T12:24:45.526Z,156
2018-01-22T12:25:46.129Z,216
2018-01-22T12:26:46.665Z,280
2018-01-22T12:27:47.237Z,288
2018-01-22T12:28:47.809Z,292
2018-01-22T12:29:48.383Z,268
2018-01-22T12:30:48.960Z,240
2018-01-22T12:31:49.526Z,228
2018-01-22T12:32:50.147Z,216
2018-01-22T12:33:50.668Z,188
2018-01-22T12:34:51.237Z,176
2018-01-22T12:35:51.807Z,152
2018-01-22T12:36:52.391Z,140
2018-01-22T12:37:52.961Z,136
2018-01-22T12:38:53.533Z,140
2018-01-22T12:39:54.104Z,152
2018-01-22T12:40:54.680Z,124
2018-01-22T12:41:55.246Z,124
2018-01-22T12:42:55.831Z,120
2018-01-22T12:43:56.416Z,108
2018-01-22T12:44:56.988Z,100
2018-01-22T12:45:57.571Z,96
2018-01-22T12:46:58.141Z,104
2018-01-22T12:47:58.713Z,120
2018-01-22T12:48:59.283Z,164
2018-01-22T12:49:59.853Z,216
2018-01-22T12:51:00.439Z,236
2018-01-22T12:52:01.010Z,228
2018-01-22T12:53:01.580Z,220
2018-01-22T12:54:02.152Z,212
2018-01-22T12:55:02.724Z,188
2018-01-22T12:56:03.294Z,188
2018-01-22T12:57:03.864Z,228
2018-01-22T12:58:04.433Z,276
2018-01-22T12:59:05.005Z,280
2018-01-22T13:00:05.577Z,288
2018-01-22T13:01:06.186Z,292
2018-01-22T13:02:06.722Z,312
2018-01-22T13:03:07.295Z,320
2018-01-22T13:04:07.879Z,332
2018-01-22T13:05:08.452Z,340
2018-01-22T13:06:09.023Z,324
2018-01-22T13:07:09.594Z,296
2018-01-22T13:08:10.167Z,272
2018-01-22T13:09:10.740Z,252
2018-01-22T13:10:11.312Z,240
2018-01-22T13:11:11.902Z,232
2018-01-22T13:12:12.473Z,224
2018-01-22T13:13:13.047Z,224
2018-01-22T13:14:13.617Z,220
2018-01-22T13:15:14.189Z,228
2018-01-22T13:16:14.763Z,244
2018-01-22T13:17:15.335Z,260
2018-01-22T13:18:15.908Z,268
2018-01-22T13:19:16.482Z,260
2018-01-22T13:20:17.057Z,260
2018-01-22T13:21:17.643Z,256
2018-01-22T13:22:18.215Z,244
2018-01-22T13:23:18.788Z,236
2018-01-22T13:24:19.360Z,232
2018-01-22T13:25:19.934Z,232
2018-01-22T13:26:20.505Z,236
2018-01-22T13:27:21.079Z,244
2018-01-22T13:28:21.654Z,252
2018-01-22T13:29:22.226Z,280
2018-01-22T13:30:22.798Z,300
2018-01-22T13:31:23.373Z,308
2018-01-22T13:32:23.948Z,312
2018-01-22T13:33:24.518Z,296
2018-01-22T13:34:25.094Z,280
2018-01-22T13:35:25.665Z,260
2018-01-22T13:36:26.238Z,232
2018-01-22T13:37:26.811Z,196
2018-01-22T13:38:27.382Z,204
2018-01-22T13:39:27.955Z,224
2018-01-22T13:40:28.528Z,224
2018-01-22T13:41:29.099Z,220
2018-01-22T13:42:29.688Z,236
2018-01-22T13:43:30.259Z,228
2018-01-22T13:44:30.833Z,216
2018-01-22T13:45:31.407Z,200
2018-01-22T13:46:31.992Z,188
2018-01-22T13:47:32.564Z,180
2018-01-22T13:48:33.136Z,168
2018-01-22T13:49:33.708Z,144
2018-01-22T13:50:34.287Z,128
2018-01-22T13:51:34.854Z,136
2018-01-22T13:52:35.428Z,132
2018-01-22T13:53:36.001Z,148
2018-01-22T13:54:36.572Z,156
2018-01-22T13:55:37.142Z,164
2018-01-22T13:56:37.716Z,160
2018-01-22T13:57:38.338Z,156
2018-01-22T13:58:38.861Z,172
2018-01-22T13:59:39.431Z,176
2018-01-22T14:00:40.005Z,188
2018-01-22T14:01:40.578Z,192
2018-01-22T14:02:41.149Z,188
2018-01-22T14:03:41.721Z,192
2018-01-22T14:04:42.293Z,188
2018-01-22T14:05:42.866Z,192
2018-01-22T14:06:43.437Z,192
2018-01-22T14:07:44.009Z,196
2018-01-22T14:08:44.582Z,208
2018-01-22T14:09:45.154Z,216
2018-01-22T14:10:45.725Z,232
2018-01-22T14:11:46.312Z,236
2018-01-22T14:12:46.883Z,228
2018-01-22T14:13:47.456Z,212
2018-01-22T14:14:48.028Z,204
2018-01-22T14:15:48.627Z,196
2018-01-22T14:16:49.169Z,192
2018-01-22T14:17:49.742Z,184
2018-01-22T14:18:50.315Z,180
2018-01-22T14:19:50.886Z,176
2018-01-22T14:20:51.456Z,168
2018-01-22T14:21:52.029Z,160
2018-01-22T14:22:52.600Z,152
2018-01-22T14:23:53.174Z,148
2018-01-22T14:24:53.744Z,152
2018-01-22T14:25:54.331Z,152
2018-01-22T14:26:54.902Z,144
2018-01-22T14:27:55.475Z,144
2018-01-22T14:28:56.047Z,144
2018-01-22T14:29:56.618Z,140
2018-01-22T14:30:57.190Z,140
2018-01-22T14:31:57.766Z,136
2018-01-22T14:32:58.348Z,140
2018-01-22T14:33:58.922Z,140